sensor_id;sensor_type;location;lat;lon;timestamp;temperature;humidity
16315;DHT22;8266;52.150;4.768;2022-09-12T00:01:21;20.70;99.90
16315;DHT22;8266;52.150;4.768;2022-09-12T00:03:52;20.60;99.90
16315;DHT22;8266;52.150;4.768;2022-09-12T00:06:22;20.50;99.90
16315;DHT22;8266;52.150;4.768;2022-09-12T00:08:49;20.40;99.90
16315;DHT22;8266;52.150;4.768;2022-09-12T00:11:16;20.40;99.90
16315;DHT22;8266;52.150;4.768;2022-09-12T00:13:43;20.30;99.90
16315;DHT22;8266;52.150;4.768;2022-09-12T00:16:15;20.20;99.90
16315;DHT22;8266;52.150;4.768;2022-09-12T00:18:43;20.10;99.90
16315;DHT22;8266;52.150;4.768;2022-09-12T00:21:13;20.00;99.90
16315;DHT22;8266;52.150;4.768;2022-09-12T00:23:40;20.00;99.90
16315;DHT22;8266;52.150;4.768;2022-09-12T00:26:07;19.90;99.90
16315;DHT22;8266;52.150;4.768;2022-09-12T00:28:36;19.90;99.90
16315;DHT22;8266;52.150;4.768;2022-09-12T00:31:05;19.80;99.90
16315;DHT22;8266;52.150;4.768;2022-09-12T00:33:33;19.80;99.90
16315;DHT22;8266;52.150;4.768;2022-09-12T00:36:04;19.80;99.90
16315;DHT22;8266;52.150;4.768;2022-09-12T00:38:32;19.70;99.90
16315;DHT22;8266;52.150;4.768;2022-09-12T00:41:03;19.70;99.90
16315;DHT22;8266;52.150;4.768;2022-09-12T00:43:35;19.60;99.90
16315;DHT22;8266;52.150;4.768;2022-09-12T00:46:07;19.60;99.90
16315;DHT22;8266;52.150;4.768;2022-09-12T00:48:39;19.60;99.90
16315;DHT22;8266;52.150;4.768;2022-09-12T00:51:08;19.50;99.90
16315;DHT22;8266;52.150;4.768;2022-09-12T00:53:37;19.50;99.90
16315;DHT22;8266;52.150;4.768;2022-09-12T00:56:05;19.40;99.90
16315;DHT22;8266;52.150;4.768;2022-09-12T00:58:37;19.40;99.90
16315;DHT22;8266;52.150;4.768;2022-09-12T01:01:05;19.40;99.90
16315;DHT22;8266;52.150;4.768;2022-09-12T01:03:32;19.30;99.90
16315;DHT22;8266;52.150;4.768;2022-09-12T01:06:04;19.30;99.90
16315;DHT22;8266;52.150;4.768;2022-09-12T01:08:32;19.30;99.90
16315;DHT22;8266;52.150;4.768;2022-09-12T01:11:01;19.20;99.90
16315;DHT22;8266;52.150;4.768;2022-09-12T01:13:28;19.20;99.90
16315;DHT22;8266;52.150;4.768;2022-09-12T01:15:55;19.20;99.90
16315;DHT22;8266;52.150;4.768;2022-09-12T01:18:29;19.20;99.90
16315;DHT22;8266;52.150;4.768;2022-09-12T01:21:10;19.20;99.90
16315;DHT22;8266;52.150;4.768;2022-09-12T01:30:01;19.10;99.90
16315;DHT22;8266;52.150;4.768;2022-09-12T01:32:42;19.10;99.90
16315;DHT22;8266;52.150;4.768;2022-09-12T01:35:18;19.10;99.90
16315;DHT22;8266;52.150;4.768;2022-09-12T01:37:53;19.00;99.90
16315;DHT22;8266;52.150;4.768;2022-09-12T01:40:30;19.00;99.90
16315;DHT22;8266;52.150;4.768;2022-09-12T01:43:05;19.00;99.90
16315;DHT22;8266;52.150;4.768;2022-09-12T01:45:39;19.00;99.90
16315;DHT22;8266;52.150;4.768;2022-09-12T01:48:15;18.90;99.90
16315;DHT22;8266;52.150;4.768;2022-09-12T01:50:50;18.90;99.90
16315;DHT22;8266;52.150;4.768;2022-09-12T01:53:21;18.90;99.90
16315;DHT22;8266;52.150;4.768;2022-09-12T01:55:52;18.80;99.90
16315;DHT22;8266;52.150;4.768;2022-09-12T01:58:22;18.80;99.90
16315;DHT22;8266;52.150;4.768;2022-09-12T02:00:57;18.80;99.90
16315;DHT22;8266;52.150;4.768;2022-09-12T02:03:31;18.80;99.90
16315;DHT22;8266;52.150;4.768;2022-09-12T02:06:02;18.90;99.90
16315;DHT22;8266;52.150;4.768;2022-09-12T02:08:36;18.90;99.90
16315;DHT22;8266;52.150;4.768;2022-09-12T02:11:07;18.90;99.90
16315;DHT22;8266;52.150;4.768;2022-09-12T02:13:39;18.90;99.90
16315;DHT22;8266;52.150;4.768;2022-09-12T02:16:09;18.90;99.90
16315;DHT22;8266;52.150;4.768;2022-09-12T02:18:39;18.90;99.90
16315;DHT22;8266;52.150;4.768;2022-09-12T02:21:08;18.80;99.90
16315;DHT22;8266;52.150;4.768;2022-09-12T02:23:38;18.70;99.90
16315;DHT22;8266;52.150;4.768;2022-09-12T02:26:11;18.80;99.90
16315;DHT22;8266;52.150;4.768;2022-09-12T02:28:42;18.80;99.90
16315;DHT22;8266;52.150;4.768;2022-09-12T02:31:15;18.80;99.90
16315;DHT22;8266;52.150;4.768;2022-09-12T02:33:51;18.70;99.90
16315;DHT22;8266;52.150;4.768;2022-09-12T02:36:30;18.70;99.90
16315;DHT22;8266;52.150;4.768;2022-09-12T02:38:58;18.60;99.90
16315;DHT22;8266;52.150;4.768;2022-09-12T02:41:26;18.60;99.90
16315;DHT22;8266;52.150;4.768;2022-09-12T02:43:53;18.60;99.90
16315;DHT22;8266;52.150;4.768;2022-09-12T02:46:24;18.50;99.90
16315;DHT22;8266;52.150;4.768;2022-09-12T02:48:54;18.50;99.90
16315;DHT22;8266;52.150;4.768;2022-09-12T02:51:23;18.50;99.90
16315;DHT22;8266;52.150;4.768;2022-09-12T02:53:51;18.40;99.90
16315;DHT22;8266;52.150;4.768;2022-09-12T02:56:22;18.40;99.90
16315;DHT22;8266;52.150;4.768;2022-09-12T02:58:50;18.40;99.90
16315;DHT22;8266;52.150;4.768;2022-09-12T03:01:27;18.40;99.90
16315;DHT22;8266;52.150;4.768;2022-09-12T03:04:14;18.40;99.90
16315;DHT22;8266;52.150;4.768;2022-09-12T03:06:52;18.40;99.90
16315;DHT22;8266;52.150;4.768;2022-09-12T03:09:33;18.40;99.90
16315;DHT22;8266;52.150;4.768;2022-09-12T03:12:10;18.40;99.90
16315;DHT22;8266;52.150;4.768;2022-09-12T03:15:01;18.40;99.90
16315;DHT22;8266;52.150;4.768;2022-09-12T03:17:40;18.40;99.90
16315;DHT22;8266;52.150;4.768;2022-09-12T03:20:13;18.40;99.90
16315;DHT22;8266;52.150;4.768;2022-09-12T03:22:48;18.40;99.90
16315;DHT22;8266;52.150;4.768;2022-09-12T03:25:21;18.40;99.90
16315;DHT22;8266;52.150;4.768;2022-09-12T03:27:55;18.40;99.90
16315;DHT22;8266;52.150;4.768;2022-09-12T03:30:23;18.40;99.90
16315;DHT22;8266;52.150;4.768;2022-09-12T03:32:52;18.30;99.90
16315;DHT22;8266;52.150;4.768;2022-09-12T03:35:22;18.30;99.90
16315;DHT22;8266;52.150;4.768;2022-09-12T03:37:51;18.30;99.90
16315;DHT22;8266;52.150;4.768;2022-09-12T03:40:18;18.30;99.90
16315;DHT22;8266;52.150;4.768;2022-09-12T03:42:45;18.30;99.90
16315;DHT22;8266;52.150;4.768;2022-09-12T03:45:13;18.30;99.90
16315;DHT22;8266;52.150;4.768;2022-09-12T03:47:41;18.30;99.90
16315;DHT22;8266;52.150;4.768;2022-09-12T03:50:08;18.30;99.90
16315;DHT22;8266;52.150;4.768;2022-09-12T03:52:36;18.30;99.90
16315;DHT22;8266;52.150;4.768;2022-09-12T03:55:04;18.30;99.90
16315;DHT22;8266;52.150;4.768;2022-09-12T03:57:31;18.30;99.90
16315;DHT22;8266;52.150;4.768;2022-09-12T03:59:59;18.20;99.90
16315;DHT22;8266;52.150;4.768;2022-09-12T04:02:29;18.20;99.90
16315;DHT22;8266;52.150;4.768;2022-09-12T04:05:05;18.20;99.90
16315;DHT22;8266;52.150;4.768;2022-09-12T04:07:32;18.20;99.90
16315;DHT22;8266;52.150;4.768;2022-09-12T04:10:01;18.20;99.90
16315;DHT22;8266;52.150;4.768;2022-09-12T04:12:29;18.20;99.90
16315;DHT22;8266;52.150;4.768;2022-09-12T04:14:56;18.20;99.90
16315;DHT22;8266;52.150;4.768;2022-09-12T04:17:24;18.20;99.90
16315;DHT22;8266;52.150;4.768;2022-09-12T04:19:51;18.20;99.90
16315;DHT22;8266;52.150;4.768;2022-09-12T04:22:18;18.20;99.90
16315;DHT22;8266;52.150;4.768;2022-09-12T04:24:45;18.20;99.90
16315;DHT22;8266;52.150;4.768;2022-09-12T04:27:14;18.20;99.90
16315;DHT22;8266;52.150;4.768;2022-09-12T04:29:41;18.20;99.90
16315;DHT22;8266;52.150;4.768;2022-09-12T04:32:08;18.20;99.90
16315;DHT22;8266;52.150;4.768;2022-09-12T04:34:36;18.20;99.90
16315;DHT22;8266;52.150;4.768;2022-09-12T04:37:04;18.20;99.90
16315;DHT22;8266;52.150;4.768;2022-09-12T04:39:32;18.10;99.90
16315;DHT22;8266;52.150;4.768;2022-09-12T04:41:59;18.20;99.90
16315;DHT22;8266;52.150;4.768;2022-09-12T04:47:51;18.10;99.90
16315;DHT22;8266;52.150;4.768;2022-09-12T04:50:18;18.10;99.90
16315;DHT22;8266;52.150;4.768;2022-09-12T04:52:48;18.10;99.90
16315;DHT22;8266;52.150;4.768;2022-09-12T04:55:15;18.10;99.90
16315;DHT22;8266;52.150;4.768;2022-09-12T04:57:42;18.10;99.90
16315;DHT22;8266;52.150;4.768;2022-09-12T05:00:11;18.20;99.90
16315;DHT22;8266;52.150;4.768;2022-09-12T05:02:39;18.10;99.90
16315;DHT22;8266;52.150;4.768;2022-09-12T05:05:08;18.10;99.90
16315;DHT22;8266;52.150;4.768;2022-09-12T05:07:41;18.10;99.90
16315;DHT22;8266;52.150;4.768;2022-09-12T05:10:09;18.10;99.90
16315;DHT22;8266;52.150;4.768;2022-09-12T05:12:36;18.10;99.90
16315;DHT22;8266;52.150;4.768;2022-09-12T05:15:04;18.10;99.90
16315;DHT22;8266;52.150;4.768;2022-09-12T05:17:31;18.10;99.90
16315;DHT22;8266;52.150;4.768;2022-09-12T05:19:58;18.10;99.90
16315;DHT22;8266;52.150;4.768;2022-09-12T05:22:27;18.10;99.90
16315;DHT22;8266;52.150;4.768;2022-09-12T05:24:54;18.10;99.90
16315;DHT22;8266;52.150;4.768;2022-09-12T05:27:21;18.10;99.90
16315;DHT22;8266;52.150;4.768;2022-09-12T05:29:48;18.10;99.90
16315;DHT22;8266;52.150;4.768;2022-09-12T05:32:15;18.10;99.90
16315;DHT22;8266;52.150;4.768;2022-09-12T05:34:42;18.10;99.90
16315;DHT22;8266;52.150;4.768;2022-09-12T05:37:09;18.10;99.90
16315;DHT22;8266;52.150;4.768;2022-09-12T05:39:40;18.00;99.90
16315;DHT22;8266;52.150;4.768;2022-09-12T05:42:07;18.00;99.90
16315;DHT22;8266;52.150;4.768;2022-09-12T05:44:34;18.00;99.90
16315;DHT22;8266;52.150;4.768;2022-09-12T05:47:01;18.00;99.90
16315;DHT22;8266;52.150;4.768;2022-09-12T05:49:28;17.90;99.90
16315;DHT22;8266;52.150;4.768;2022-09-12T05:51:55;17.90;99.90
16315;DHT22;8266;52.150;4.768;2022-09-12T05:54:22;17.90;99.90
16315;DHT22;8266;52.150;4.768;2022-09-12T05:56:51;17.90;99.90
16315;DHT22;8266;52.150;4.768;2022-09-12T05:59:19;17.90;99.90
16315;DHT22;8266;52.150;4.768;2022-09-12T06:01:47;17.90;99.90
16315;DHT22;8266;52.150;4.768;2022-09-12T06:04:14;17.90;99.90
16315;DHT22;8266;52.150;4.768;2022-09-12T06:06:43;17.90;99.90
16315;DHT22;8266;52.150;4.768;2022-09-12T06:09:11;17.90;99.90
16315;DHT22;8266;52.150;4.768;2022-09-12T06:11:39;17.90;99.90
16315;DHT22;8266;52.150;4.768;2022-09-12T06:14:08;17.90;99.90
16315;DHT22;8266;52.150;4.768;2022-09-12T06:16:35;17.90;99.90
16315;DHT22;8266;52.150;4.768;2022-09-12T06:19:03;17.90;99.90
16315;DHT22;8266;52.150;4.768;2022-09-12T06:21:32;17.90;99.90
16315;DHT22;8266;52.150;4.768;2022-09-12T06:24:00;17.90;99.90
16315;DHT22;8266;52.150;4.768;2022-09-12T06:26:27;17.90;99.90
16315;DHT22;8266;52.150;4.768;2022-09-12T06:28:56;17.90;99.90
16315;DHT22;8266;52.150;4.768;2022-09-12T06:31:26;17.90;99.90
16315;DHT22;8266;52.150;4.768;2022-09-12T06:33:55;18.00;99.90
16315;DHT22;8266;52.150;4.768;2022-09-12T06:36:24;18.00;99.90
16315;DHT22;8266;52.150;4.768;2022-09-12T06:38:55;18.00;99.90
16315;DHT22;8266;52.150;4.768;2022-09-12T06:41:23;18.00;99.90
16315;DHT22;8266;52.150;4.768;2022-09-12T06:43:50;18.10;99.90
16315;DHT22;8266;52.150;4.768;2022-09-12T06:46:18;18.10;99.90
16315;DHT22;8266;52.150;4.768;2022-09-12T06:48:46;18.10;99.90
16315;DHT22;8266;52.150;4.768;2022-09-12T06:51:15;18.20;99.90
16315;DHT22;8266;52.150;4.768;2022-09-12T06:53:43;18.20;99.90
16315;DHT22;8266;52.150;4.768;2022-09-12T06:56:11;18.30;99.90
16315;DHT22;8266;52.150;4.768;2022-09-12T06:58:39;18.30;99.90
16315;DHT22;8266;52.150;4.768;2022-09-12T07:01:08;18.40;99.90
16315;DHT22;8266;52.150;4.768;2022-09-12T07:03:36;18.40;99.90
16315;DHT22;8266;52.150;4.768;2022-09-12T07:06:07;18.50;99.90
16315;DHT22;8266;52.150;4.768;2022-09-12T07:08:35;18.60;99.90
16315;DHT22;8266;52.150;4.768;2022-09-12T07:11:09;18.60;99.90
16315;DHT22;8266;52.150;4.768;2022-09-12T07:13:36;18.80;99.90
16315;DHT22;8266;52.150;4.768;2022-09-12T07:16:04;18.80;99.90
16315;DHT22;8266;52.150;4.768;2022-09-12T07:18:31;18.90;99.90
16315;DHT22;8266;52.150;4.768;2022-09-12T07:20:59;19.00;99.90
16315;DHT22;8266;52.150;4.768;2022-09-12T07:23:28;19.20;99.90
16315;DHT22;8266;52.150;4.768;2022-09-12T07:25:56;19.30;99.90
16315;DHT22;8266;52.150;4.768;2022-09-12T07:28:23;19.50;99.90
16315;DHT22;8266;52.150;4.768;2022-09-12T07:30:51;19.70;99.90
16315;DHT22;8266;52.150;4.768;2022-09-12T07:33:18;19.90;99.90
16315;DHT22;8266;52.150;4.768;2022-09-12T07:35:45;20.10;99.90
16315;DHT22;8266;52.150;4.768;2022-09-12T07:38:12;20.40;99.90
16315;DHT22;8266;52.150;4.768;2022-09-12T07:40:41;20.70;99.90
16315;DHT22;8266;52.150;4.768;2022-09-12T07:43:08;21.00;99.90
16315;DHT22;8266;52.150;4.768;2022-09-12T07:45:35;21.40;99.90
16315;DHT22;8266;52.150;4.768;2022-09-12T07:48:02;21.80;99.90
16315;DHT22;8266;52.150;4.768;2022-09-12T07:50:29;22.30;99.90
16315;DHT22;8266;52.150;4.768;2022-09-12T07:52:58;22.70;99.90
16315;DHT22;8266;52.150;4.768;2022-09-12T07:55:25;23.20;99.90
16315;DHT22;8266;52.150;4.768;2022-09-12T07:57:53;23.70;99.90
16315;DHT22;8266;52.150;4.768;2022-09-12T08:00:20;24.20;99.90
16315;DHT22;8266;52.150;4.768;2022-09-12T08:02:50;24.60;99.90
16315;DHT22;8266;52.150;4.768;2022-09-12T08:05:17;25.00;99.90
16315;DHT22;8266;52.150;4.768;2022-09-12T08:07:45;25.40;99.90
16315;DHT22;8266;52.150;4.768;2022-09-12T08:10:12;25.80;99.90
16315;DHT22;8266;52.150;4.768;2022-09-12T08:12:40;26.00;99.90
16315;DHT22;8266;52.150;4.768;2022-09-12T08:15:09;26.30;99.90
16315;DHT22;8266;52.150;4.768;2022-09-12T08:17:36;26.50;99.90
16315;DHT22;8266;52.150;4.768;2022-09-12T08:20:04;26.70;99.90
16315;DHT22;8266;52.150;4.768;2022-09-12T08:22:31;26.90;99.90
16315;DHT22;8266;52.150;4.768;2022-09-12T08:24:59;27.00;99.90
16315;DHT22;8266;52.150;4.768;2022-09-12T08:27:26;27.30;99.90
16315;DHT22;8266;52.150;4.768;2022-09-12T08:29:53;27.40;99.90
16315;DHT22;8266;52.150;4.768;2022-09-12T08:32:21;27.60;99.90
16315;DHT22;8266;52.150;4.768;2022-09-12T08:34:48;27.60;99.90
16315;DHT22;8266;52.150;4.768;2022-09-12T08:37:15;27.70;99.90
16315;DHT22;8266;52.150;4.768;2022-09-12T08:39:42;27.70;99.90
16315;DHT22;8266;52.150;4.768;2022-09-12T08:42:10;27.70;99.90
16315;DHT22;8266;52.150;4.768;2022-09-12T08:45:00;27.60;99.90
16315;DHT22;8266;52.150;4.768;2022-09-12T08:47:34;27.50;99.90
16315;DHT22;8266;52.150;4.768;2022-09-12T08:50:09;27.40;99.90
16315;DHT22;8266;52.150;4.768;2022-09-12T08:52:46;27.50;99.90
16315;DHT22;8266;52.150;4.768;2022-09-12T08:55:29;27.50;99.90
16315;DHT22;8266;52.150;4.768;2022-09-12T08:57:57;27.60;99.90
16315;DHT22;8266;52.150;4.768;2022-09-12T09:00:34;27.70;99.90
16315;DHT22;8266;52.150;4.768;2022-09-12T09:06:56;27.90;99.90
16315;DHT22;8266;52.150;4.768;2022-09-12T09:09:34;28.10;99.90
16315;DHT22;8266;52.150;4.768;2022-09-12T09:12:08;28.30;99.90
16315;DHT22;8266;52.150;4.768;2022-09-12T09:15:01;28.40;99.90
16315;DHT22;8266;52.150;4.768;2022-09-12T09:17:33;28.50;99.90
16315;DHT22;8266;52.150;4.768;2022-09-12T09:20:06;28.60;99.90
16315;DHT22;8266;52.150;4.768;2022-09-12T09:22:43;28.80;99.90
16315;DHT22;8266;52.150;4.768;2022-09-12T09:25:16;28.90;99.90
16315;DHT22;8266;52.150;4.768;2022-09-12T09:27:49;29.00;99.90
16315;DHT22;8266;52.150;4.768;2022-09-12T09:30:18;29.00;99.90
16315;DHT22;8266;52.150;4.768;2022-09-12T09:32:49;28.90;99.90
16315;DHT22;8266;52.150;4.768;2022-09-12T09:35:21;29.00;99.90
16315;DHT22;8266;52.150;4.768;2022-09-12T09:37:59;29.00;99.90
16315;DHT22;8266;52.150;4.768;2022-09-12T09:40:38;29.10;99.90
16315;DHT22;8266;52.150;4.768;2022-09-12T09:43:16;29.20;99.90
16315;DHT22;8266;52.150;4.768;2022-09-12T09:45:45;29.30;99.90
16315;DHT22;8266;52.150;4.768;2022-09-12T09:48:16;29.40;99.90
16315;DHT22;8266;52.150;4.768;2022-09-12T09:50:45;29.50;99.90
16315;DHT22;8266;52.150;4.768;2022-09-12T09:53:30;29.60;99.90
16315;DHT22;8266;52.150;4.768;2022-09-12T09:56:05;29.70;99.90
16315;DHT22;8266;52.150;4.768;2022-09-12T09:58:34;29.90;99.90
16315;DHT22;8266;52.150;4.768;2022-09-12T10:01:02;30.00;99.90
16315;DHT22;8266;52.150;4.768;2022-09-12T10:03:33;30.20;99.90
16315;DHT22;8266;52.150;4.768;2022-09-12T10:06:07;30.50;99.90
16315;DHT22;8266;52.150;4.768;2022-09-12T10:08:36;30.70;99.90
16315;DHT22;8266;52.150;4.768;2022-09-12T10:11:06;30.90;99.90
16315;DHT22;8266;52.150;4.768;2022-09-12T10:13:52;31.00;99.90
16315;DHT22;8266;52.150;4.768;2022-09-12T10:16:21;31.10;99.90
16315;DHT22;8266;52.150;4.768;2022-09-12T10:18:50;31.10;99.90
16315;DHT22;8266;52.150;4.768;2022-09-12T10:21:21;31.10;99.90
16315;DHT22;8266;52.150;4.768;2022-09-12T10:23:59;31.00;99.90
16315;DHT22;8266;52.150;4.768;2022-09-12T10:26:32;30.90;99.90
16315;DHT22;8266;52.150;4.768;2022-09-12T10:29:11;30.90;99.90
16315;DHT22;8266;52.150;4.768;2022-09-12T10:31:46;30.90;99.90
16315;DHT22;8266;52.150;4.768;2022-09-12T10:34:24;30.80;99.90
16315;DHT22;8266;52.150;4.768;2022-09-12T10:36:54;30.70;99.40
16315;DHT22;8266;52.150;4.768;2022-09-12T10:39:26;30.70;99.90
16315;DHT22;8266;52.150;4.768;2022-09-12T10:41:53;30.60;99.90
16315;DHT22;8266;52.150;4.768;2022-09-12T10:44:24;30.60;99.90
16315;DHT22;8266;52.150;4.768;2022-09-12T10:46:52;30.60;99.90
16315;DHT22;8266;52.150;4.768;2022-09-12T10:49:25;30.60;99.90
16315;DHT22;8266;52.150;4.768;2022-09-12T10:51:53;30.70;99.90
16315;DHT22;8266;52.150;4.768;2022-09-12T10:54:22;30.70;99.90
16315;DHT22;8266;52.150;4.768;2022-09-12T10:57:05;30.80;99.90
16315;DHT22;8266;52.150;4.768;2022-09-12T10:59:50;30.80;98.90
16315;DHT22;8266;52.150;4.768;2022-09-12T11:02:27;30.80;98.60
16315;DHT22;8266;52.150;4.768;2022-09-12T11:05:01;30.70;98.60
16315;DHT22;8266;52.150;4.768;2022-09-12T11:07:41;30.70;98.20
16315;DHT22;8266;52.150;4.768;2022-09-12T11:10:27;30.50;98.40
16315;DHT22;8266;52.150;4.768;2022-09-12T11:13:08;30.50;97.50
16315;DHT22;8266;52.150;4.768;2022-09-12T11:18:37;30.00;97.10
16315;DHT22;8266;52.150;4.768;2022-09-12T11:21:21;29.80;98.30
16315;DHT22;8266;52.150;4.768;2022-09-12T11:24:11;29.70;98.50
16315;DHT22;8266;52.150;4.768;2022-09-12T11:26:58;29.60;99.80
16315;DHT22;8266;52.150;4.768;2022-09-12T11:29:39;29.60;98.90
16315;DHT22;8266;52.150;4.768;2022-09-12T11:32:27;29.50;97.50
16315;DHT22;8266;52.150;4.768;2022-09-12T11:35:04;29.50;98.30
16315;DHT22;8266;52.150;4.768;2022-09-12T11:37:49;29.50;98.80
16315;DHT22;8266;52.150;4.768;2022-09-12T11:40:26;29.40;98.50
16315;DHT22;8266;52.150;4.768;2022-09-12T11:42:58;29.40;98.90
16315;DHT22;8266;52.150;4.768;2022-09-12T11:45:30;29.40;99.70
16315;DHT22;8266;52.150;4.768;2022-09-12T11:48:04;29.30;99.90
16315;DHT22;8266;52.150;4.768;2022-09-12T11:50:32;29.40;99.30
16315;DHT22;8266;52.150;4.768;2022-09-12T11:53:08;29.40;99.90
16315;DHT22;8266;52.150;4.768;2022-09-12T11:55:46;29.50;99.90
16315;DHT22;8266;52.150;4.768;2022-09-12T11:58:16;29.50;98.00
16315;DHT22;8266;52.150;4.768;2022-09-12T12:00:50;29.50;99.20
16315;DHT22;8266;52.150;4.768;2022-09-12T12:03:24;29.60;99.20
16315;DHT22;8266;52.150;4.768;2022-09-12T12:05:56;29.60;97.20
16315;DHT22;8266;52.150;4.768;2022-09-12T12:08:26;29.70;98.00
16315;DHT22;8266;52.150;4.768;2022-09-12T12:10:56;29.70;98.20
16315;DHT22;8266;52.150;4.768;2022-09-12T12:13:28;29.60;98.30
16315;DHT22;8266;52.150;4.768;2022-09-12T12:15:59;29.60;97.10
16315;DHT22;8266;52.150;4.768;2022-09-12T12:18:29;29.60;97.60
16315;DHT22;8266;52.150;4.768;2022-09-12T12:21:18;29.50;98.00
16315;DHT22;8266;52.150;4.768;2022-09-12T12:24:02;29.50;96.80
16315;DHT22;8266;52.150;4.768;2022-09-12T12:26:52;29.50;96.90
16315;DHT22;8266;52.150;4.768;2022-09-12T12:29:36;29.50;95.90
16315;DHT22;8266;52.150;4.768;2022-09-12T12:32:26;29.40;97.60
16315;DHT22;8266;52.150;4.768;2022-09-12T12:37:58;29.40;97.10
16315;DHT22;8266;52.150;4.768;2022-09-12T12:40:28;29.40;98.30
16315;DHT22;8266;52.150;4.768;2022-09-12T12:43:28;29.30;97.00
16315;DHT22;8266;52.150;4.768;2022-09-12T12:46:08;29.40;97.80
16315;DHT22;8266;52.150;4.768;2022-09-12T12:51:36;29.40;96.10
16315;DHT22;8266;52.150;4.768;2022-09-12T12:54:26;29.40;97.40
16315;DHT22;8266;52.150;4.768;2022-09-12T12:57:04;29.40;95.90
16315;DHT22;8266;52.150;4.768;2022-09-12T12:59:32;29.40;95.50
16315;DHT22;8266;52.150;4.768;2022-09-12T13:01:59;29.30;96.10
16315;DHT22;8266;52.150;4.768;2022-09-12T13:04:29;29.30;96.20
16315;DHT22;8266;52.150;4.768;2022-09-12T13:07:01;29.20;95.30
16315;DHT22;8266;52.150;4.768;2022-09-12T13:09:31;29.20;96.00
16315;DHT22;8266;52.150;4.768;2022-09-12T13:12:02;29.30;96.20
16315;DHT22;8266;52.150;4.768;2022-09-12T13:14:47;29.30;95.70
16315;DHT22;8266;52.150;4.768;2022-09-12T13:17:22;29.30;95.80
16315;DHT22;8266;52.150;4.768;2022-09-12T13:20:00;29.30;96.60
16315;DHT22;8266;52.150;4.768;2022-09-12T13:22:38;29.40;96.30
16315;DHT22;8266;52.150;4.768;2022-09-12T13:25:27;29.50;95.40
16315;DHT22;8266;52.150;4.768;2022-09-12T13:28:13;29.50;94.40
16315;DHT22;8266;52.150;4.768;2022-09-12T13:30:44;29.60;94.30
16315;DHT22;8266;52.150;4.768;2022-09-12T13:33:22;29.60;95.10
16315;DHT22;8266;52.150;4.768;2022-09-12T13:36:25;29.60;95.90
16315;DHT22;8266;52.150;4.768;2022-09-12T13:39:08;29.70;95.40
16315;DHT22;8266;52.150;4.768;2022-09-12T13:41:53;29.70;94.00
16315;DHT22;8266;52.150;4.768;2022-09-12T13:44:28;29.70;93.50
16315;DHT22;8266;52.150;4.768;2022-09-12T13:46:58;29.70;94.70
16315;DHT22;8266;52.150;4.768;2022-09-12T13:49:30;29.80;95.50
16315;DHT22;8266;52.150;4.768;2022-09-12T13:52:03;29.80;95.00
16315;DHT22;8266;52.150;4.768;2022-09-12T13:54:34;29.80;94.70
16315;DHT22;8266;52.150;4.768;2022-09-12T13:57:05;29.80;92.80
16315;DHT22;8266;52.150;4.768;2022-09-12T13:59:37;29.80;93.80
16315;DHT22;8266;52.150;4.768;2022-09-12T14:02:17;29.70;92.30
16315;DHT22;8266;52.150;4.768;2022-09-12T14:04:46;29.70;90.90
16315;DHT22;8266;52.150;4.768;2022-09-12T14:07:32;29.60;92.00
16315;DHT22;8266;52.150;4.768;2022-09-12T14:10:00;29.50;92.90
16315;DHT22;8266;52.150;4.768;2022-09-12T14:12:33;29.50;93.70
16315;DHT22;8266;52.150;4.768;2022-09-12T14:15:03;29.40;94.20
16315;DHT22;8266;52.150;4.768;2022-09-12T14:17:32;29.40;93.90
16315;DHT22;8266;52.150;4.768;2022-09-12T14:20:02;29.50;94.20
16315;DHT22;8266;52.150;4.768;2022-09-12T14:22:34;29.50;94.10
16315;DHT22;8266;52.150;4.768;2022-09-12T14:25:01;29.50;93.40
16315;DHT22;8266;52.150;4.768;2022-09-12T14:27:39;29.60;93.50
16315;DHT22;8266;52.150;4.768;2022-09-12T14:30:26;29.60;93.30
16315;DHT22;8266;52.150;4.768;2022-09-12T14:33:18;29.70;92.70
16315;DHT22;8266;52.150;4.768;2022-09-12T14:35:48;29.70;91.70
16315;DHT22;8266;52.150;4.768;2022-09-12T14:38:24;29.70;93.70
16315;DHT22;8266;52.150;4.768;2022-09-12T14:40:59;29.70;93.10
16315;DHT22;8266;52.150;4.768;2022-09-12T14:43:28;29.60;93.00
16315;DHT22;8266;52.150;4.768;2022-09-12T14:45:58;29.60;93.20
16315;DHT22;8266;52.150;4.768;2022-09-12T14:48:26;29.60;93.70
16315;DHT22;8266;52.150;4.768;2022-09-12T14:50:55;29.70;93.90
16315;DHT22;8266;52.150;4.768;2022-09-12T14:53:31;29.70;93.80
16315;DHT22;8266;52.150;4.768;2022-09-12T14:56:06;29.70;92.50
16315;DHT22;8266;52.150;4.768;2022-09-12T14:58:34;29.70;94.10
16315;DHT22;8266;52.150;4.768;2022-09-12T15:01:20;29.80;95.10
16315;DHT22;8266;52.150;4.768;2022-09-12T15:03:52;29.90;93.40
16315;DHT22;8266;52.150;4.768;2022-09-12T15:06:27;29.90;93.70
16315;DHT22;8266;52.150;4.768;2022-09-12T15:08:57;29.90;93.00
16315;DHT22;8266;52.150;4.768;2022-09-12T15:11:25;29.90;92.60
16315;DHT22;8266;52.150;4.768;2022-09-12T15:13:54;29.90;93.30
16315;DHT22;8266;52.150;4.768;2022-09-12T15:16:21;29.90;92.30
16315;DHT22;8266;52.150;4.768;2022-09-12T15:18:48;29.90;92.40
16315;DHT22;8266;52.150;4.768;2022-09-12T15:21:17;29.90;92.50
16315;DHT22;8266;52.150;4.768;2022-09-12T15:23:46;29.80;92.00
16315;DHT22;8266;52.150;4.768;2022-09-12T15:26:17;29.80;92.40
16315;DHT22;8266;52.150;4.768;2022-09-12T15:28:44;29.80;92.40
16315;DHT22;8266;52.150;4.768;2022-09-12T15:31:16;29.90;93.20
16315;DHT22;8266;52.150;4.768;2022-09-12T15:33:45;30.00;92.80
16315;DHT22;8266;52.150;4.768;2022-09-12T15:36:15;30.10;92.90
16315;DHT22;8266;52.150;4.768;2022-09-12T15:38:42;30.10;92.70
16315;DHT22;8266;52.150;4.768;2022-09-12T15:41:11;30.20;93.20
16315;DHT22;8266;52.150;4.768;2022-09-12T15:43:40;30.30;92.50
16315;DHT22;8266;52.150;4.768;2022-09-12T15:46:11;30.40;92.40
16315;DHT22;8266;52.150;4.768;2022-09-12T15:48:38;30.40;91.70
16315;DHT22;8266;52.150;4.768;2022-09-12T15:51:07;30.50;91.60
16315;DHT22;8266;52.150;4.768;2022-09-12T15:53:36;30.50;91.40
16315;DHT22;8266;52.150;4.768;2022-09-12T15:56:03;30.50;91.70
16315;DHT22;8266;52.150;4.768;2022-09-12T15:58:30;30.40;91.70
16315;DHT22;8266;52.150;4.768;2022-09-12T16:00:59;30.40;91.60
16315;DHT22;8266;52.150;4.768;2022-09-12T16:03:28;30.40;91.50
16315;DHT22;8266;52.150;4.768;2022-09-12T16:05:56;30.30;91.50
16315;DHT22;8266;52.150;4.768;2022-09-12T16:08:23;30.30;91.80
16315;DHT22;8266;52.150;4.768;2022-09-12T16:10:53;30.20;92.20
16315;DHT22;8266;52.150;4.768;2022-09-12T16:13:22;30.20;91.20
16315;DHT22;8266;52.150;4.768;2022-09-12T16:15:49;30.20;91.50
16315;DHT22;8266;52.150;4.768;2022-09-12T16:18:17;30.20;91.30
16315;DHT22;8266;52.150;4.768;2022-09-12T16:20:44;30.10;91.30
16315;DHT22;8266;52.150;4.768;2022-09-12T16:23:12;30.00;91.80
16315;DHT22;8266;52.150;4.768;2022-09-12T16:25:39;30.00;92.40
16315;DHT22;8266;52.150;4.768;2022-09-12T16:28:06;29.90;91.70
16315;DHT22;8266;52.150;4.768;2022-09-12T16:30:34;29.90;91.70
16315;DHT22;8266;52.150;4.768;2022-09-12T16:33:01;29.80;92.20
16315;DHT22;8266;52.150;4.768;2022-09-12T16:35:30;29.70;92.00